sensor_id;sensor_type;location;lat;lon;timestamp;pressure;altitude;pressure_sealevel;temperature;humidity
67803;BME280;54601;51.378;-1.342;2023-06-24T00:02:07;101112.05;;;25.19;35.07
67803;BME280;54601;51.378;-1.342;2023-06-24T00:04:33;101113.55;;;24.87;35.17
67803;BME280;54601;51.378;-1.342;2023-06-24T00:06:59;101113.59;;;25.01;35.33
67803;BME280;54601;51.378;-1.342;2023-06-24T00:09:23;101108.05;;;25.28;34.95
67803;BME280;54601;51.378;-1.342;2023-06-24T00:11:48;101099.16;;;25.10;35.20
67803;BME280;54601;51.378;-1.342;2023-06-24T00:14:14;101099.20;;;25.01;35.23
67803;BME280;54601;51.378;-1.342;2023-06-24T00:16:39;101094.36;;;25.05;35.14
67803;BME280;54601;51.378;-1.342;2023-06-24T00:19:04;101092.58;;;24.69;35.29
67803;BME280;54601;51.378;-1.342;2023-06-24T00:21:30;101087.29;;;24.91;35.31
67803;BME280;54601;51.378;-1.342;2023-06-24T00:23:56;101087.27;;;24.72;35.62
67803;BME280;54601;51.378;-1.342;2023-06-24T00:26:20;101085.60;;;25.01;35.21
67803;BME280;54601;51.378;-1.342;2023-06-24T00:28:46;101084.44;;;24.70;35.54
67803;BME280;54601;51.378;-1.342;2023-06-24T00:31:11;101087.07;;;24.90;35.31
67803;BME280;54601;51.378;-1.342;2023-06-24T00:33:36;101089.17;;;24.71;35.49
67803;BME280;54601;51.378;-1.342;2023-06-24T00:36:02;101091.14;;;24.78;35.38
67803;BME280;54601;51.378;-1.342;2023-06-24T00:38:27;101095.03;;;24.71;35.51
67803;BME280;54601;51.378;-1.342;2023-06-24T00:40:52;101093.19;;;24.77;35.36
67803;BME280;54601;51.378;-1.342;2023-06-24T00:43:18;101091.78;;;24.75;35.44
67803;BME280;54601;51.378;-1.342;2023-06-24T00:45:43;101088.48;;;24.70;35.50
67803;BME280;54601;51.378;-1.342;2023-06-24T00:48:08;101085.96;;;24.88;35.21
67803;BME280;54601;51.378;-1.342;2023-06-24T00:50:34;101086.86;;;24.74;35.43
67803;BME280;54601;51.378;-1.342;2023-06-24T00:52:59;101091.25;;;24.89;35.12
67803;BME280;54601;51.378;-1.342;2023-06-24T00:55:24;101091.13;;;24.97;35.39
67803;BME280;54601;51.378;-1.342;2023-06-24T00:57:52;101090.95;;;24.85;35.56
67803;BME280;54601;51.378;-1.342;2023-06-24T01:00:16;101088.58;;;24.69;35.45
67803;BME280;54601;51.378;-1.342;2023-06-24T01:02:40;101084.69;;;24.88;35.42
67803;BME280;54601;51.378;-1.342;2023-06-24T01:05:06;101087.05;;;24.52;35.66
67803;BME280;54601;51.378;-1.342;2023-06-24T01:07:31;101084.08;;;24.74;35.21
67803;BME280;54601;51.378;-1.342;2023-06-24T01:09:56;101084.47;;;24.49;35.24
67803;BME280;54601;51.378;-1.342;2023-06-24T01:12:21;101085.33;;;24.88;35.06
67803;BME280;54601;51.378;-1.342;2023-06-24T01:14:47;101090.72;;;24.43;35.71
67803;BME280;54601;51.378;-1.342;2023-06-24T01:17:15;101091.87;;;24.79;35.46
67803;BME280;54601;51.378;-1.342;2023-06-24T01:19:47;101090.08;;;24.52;35.56
67803;BME280;54601;51.378;-1.342;2023-06-24T01:22:10;101086.72;;;24.44;35.64
67803;BME280;54601;51.378;-1.342;2023-06-24T01:24:41;101084.57;;;24.32;35.78
67803;BME280;54601;51.378;-1.342;2023-06-24T01:27:03;101082.77;;;24.52;35.75
67803;BME280;54601;51.378;-1.342;2023-06-24T01:29:31;101080.54;;;24.25;35.86
67803;BME280;54601;51.378;-1.342;2023-06-24T01:31:45;101079.63;;;24.57;35.38
67803;BME280;54601;51.378;-1.342;2023-06-24T01:34:17;101075.49;;;24.30;35.66
67803;BME280;54601;51.378;-1.342;2023-06-24T01:36:37;101070.99;;;24.60;35.56
67803;BME280;54601;51.378;-1.342;2023-06-24T01:39:02;101068.06;;;24.40;35.56
67803;BME280;54601;51.378;-1.342;2023-06-24T01:41:26;101065.02;;;24.59;35.32
67803;BME280;54601;51.378;-1.342;2023-06-24T01:43:52;101070.28;;;24.38;35.58
67803;BME280;54601;51.378;-1.342;2023-06-24T01:46:17;101073.05;;;24.47;35.45
67803;BME280;54601;51.378;-1.342;2023-06-24T01:48:43;101073.80;;;24.46;35.43
67803;BME280;54601;51.378;-1.342;2023-06-24T01:51:09;101076.25;;;24.17;35.77
67803;BME280;54601;51.378;-1.342;2023-06-24T01:53:35;101077.27;;;24.28;35.64
67803;BME280;54601;51.378;-1.342;2023-06-24T01:55:59;101080.63;;;24.53;35.29
67803;BME280;54601;51.378;-1.342;2023-06-24T01:58:22;101076.99;;;24.63;35.08
67803;BME280;54601;51.378;-1.342;2023-06-24T02:00:48;101078.76;;;24.53;35.54
67803;BME280;54601;51.378;-1.342;2023-06-24T02:03:14;101078.49;;;24.57;35.84
67803;BME280;54601;51.378;-1.342;2023-06-24T02:05:40;101078.44;;;24.43;35.65
67803;BME280;54601;51.378;-1.342;2023-06-24T02:08:04;101077.31;;;24.19;35.58
67803;BME280;54601;51.378;-1.342;2023-06-24T02:10:29;101075.51;;;24.15;35.75
67803;BME280;54601;51.378;-1.342;2023-06-24T02:12:55;101067.11;;;24.46;35.30
67803;BME280;54601;51.378;-1.342;2023-06-24T02:15:19;101072.95;;;24.23;35.55
67803;BME280;54601;51.378;-1.342;2023-06-24T02:17:46;101075.47;;;24.31;35.78
67803;BME280;54601;51.378;-1.342;2023-06-24T02:20:11;101074.73;;;24.36;35.67
67803;BME280;54601;51.378;-1.342;2023-06-24T02:22:37;101073.92;;;24.18;35.63
67803;BME280;54601;51.378;-1.342;2023-06-24T02:25:01;101075.66;;;24.31;35.41
67803;BME280;54601;51.378;-1.342;2023-06-24T02:27:26;101072.41;;;24.57;35.11
67803;BME280;54601;51.378;-1.342;2023-06-24T02:29:52;101068.57;;;24.35;35.28
67803;BME280;54601;51.378;-1.342;2023-06-24T02:32:16;101072.96;;;24.18;35.54
67803;BME280;54601;51.378;-1.342;2023-06-24T02:34:42;101073.96;;;24.45;35.43
67803;BME280;54601;51.378;-1.342;2023-06-24T02:37:07;101076.58;;;24.58;35.25
67803;BME280;54601;51.378;-1.342;2023-06-24T02:39:32;101079.75;;;24.16;35.46
67803;BME280;54601;51.378;-1.342;2023-06-24T02:41:58;101079.74;;;23.92;35.46
67803;BME280;54601;51.378;-1.342;2023-06-24T02:44:23;101080.13;;;24.22;35.35
67803;BME280;54601;51.378;-1.342;2023-06-24T02:46:49;101073.66;;;24.20;35.39
67803;BME280;54601;51.378;-1.342;2023-06-24T02:49:15;101069.79;;;24.43;35.37
67803;BME280;54601;51.378;-1.342;2023-06-24T02:51:39;101071.06;;;24.23;35.34
67803;BME280;54601;51.378;-1.342;2023-06-24T02:54:05;101068.45;;;24.34;35.23
67803;BME280;54601;51.378;-1.342;2023-06-24T02:56:30;101065.28;;;24.04;35.55
67803;BME280;54601;51.378;-1.342;2023-06-24T02:58:55;101063.26;;;23.94;35.70
67803;BME280;54601;51.378;-1.342;2023-06-24T03:01:21;101066.87;;;24.20;35.62
67803;BME280;54601;51.378;-1.342;2023-06-24T03:03:46;101062.60;;;23.76;35.86
67803;BME280;54601;51.378;-1.342;2023-06-24T03:06:11;101064.33;;;23.79;35.84
67803;BME280;54601;51.378;-1.342;2023-06-24T03:08:37;101066.44;;;24.01;35.83
67803;BME280;54601;51.378;-1.342;2023-06-24T03:11:02;101065.99;;;24.04;35.80
67803;BME280;54601;51.378;-1.342;2023-06-24T03:13:27;101063.16;;;24.02;35.75
67803;BME280;54601;51.378;-1.342;2023-06-24T03:15:52;101062.53;;;24.03;35.80
67803;BME280;54601;51.378;-1.342;2023-06-24T03:18:19;101063.13;;;23.86;35.98
67803;BME280;54601;51.378;-1.342;2023-06-24T03:20:43;101062.22;;;23.88;36.00
67803;BME280;54601;51.378;-1.342;2023-06-24T03:23:09;101059.97;;;23.85;36.00
67803;BME280;54601;51.378;-1.342;2023-06-24T03:25:34;101059.67;;;23.82;35.98
67803;BME280;54601;51.378;-1.342;2023-06-24T03:27:59;101064.36;;;23.76;36.10
67803;BME280;54601;51.378;-1.342;2023-06-24T03:30:25;101060.77;;;24.22;35.82
67803;BME280;54601;51.378;-1.342;2023-06-24T03:32:50;101065.43;;;23.88;35.91
67803;BME280;54601;51.378;-1.342;2023-06-24T03:35:15;101062.85;;;24.22;35.83
67803;BME280;54601;51.378;-1.342;2023-06-24T03:37:41;101064.32;;;23.95;36.21
67803;BME280;54601;51.378;-1.342;2023-06-24T03:40:07;101064.81;;;23.67;36.17
67803;BME280;54601;51.378;-1.342;2023-06-24T03:42:31;101060.05;;;24.24;35.77
67803;BME280;54601;51.378;-1.342;2023-06-24T03:44:57;101059.06;;;23.85;35.84
67803;BME280;54601;51.378;-1.342;2023-06-24T03:47:23;101059.73;;;24.12;35.92
67803;BME280;54601;51.378;-1.342;2023-06-24T03:49:48;101058.94;;;23.76;36.04
67803;BME280;54601;51.378;-1.342;2023-06-24T03:52:13;101062.30;;;23.64;36.15
67803;BME280;54601;51.378;-1.342;2023-06-24T03:54:39;101065.49;;;23.71;36.06
67803;BME280;54601;51.378;-1.342;2023-06-24T03:57:05;101066.18;;;23.61;36.21
67803;BME280;54601;51.378;-1.342;2023-06-24T03:59:29;101070.24;;;23.82;35.94
67803;BME280;54601;51.378;-1.342;2023-06-24T04:01:54;101072.65;;;23.65;36.11
67803;BME280;54601;51.378;-1.342;2023-06-24T04:04:20;101069.64;;;23.46;36.08
67803;BME280;54601;51.378;-1.342;2023-06-24T04:06:45;101072.25;;;23.66;36.05
67803;BME280;54601;51.378;-1.342;2023-06-24T04:09:10;101075.93;;;23.77;35.95
67803;BME280;54601;51.378;-1.342;2023-06-24T04:11:36;101073.97;;;23.55;36.23
67803;BME280;54601;51.378;-1.342;2023-06-24T04:14:01;101074.14;;;23.97;36.01
67803;BME280;54601;51.378;-1.342;2023-06-24T04:16:26;101071.24;;;23.91;36.05
67803;BME280;54601;51.378;-1.342;2023-06-24T04:18:52;101068.65;;;23.96;36.03
67803;BME280;54601;51.378;-1.342;2023-06-24T04:21:17;101069.81;;;24.07;35.89
67803;BME280;54601;51.378;-1.342;2023-06-24T04:23:42;101071.04;;;23.56;36.22
67803;BME280;54601;51.378;-1.342;2023-06-24T04:26:08;101071.17;;;23.98;36.00
67803;BME280;54601;51.378;-1.342;2023-06-24T04:28:33;101075.07;;;23.79;35.90
67803;BME280;54601;51.378;-1.342;2023-06-24T04:30:58;101079.27;;;24.24;35.65
67803;BME280;54601;51.378;-1.342;2023-06-24T04:33:24;101079.35;;;23.69;35.99
67803;BME280;54601;51.378;-1.342;2023-06-24T04:35:49;101078.34;;;23.81;36.20
67803;BME280;54601;51.378;-1.342;2023-06-24T04:38:14;101081.84;;;23.56;36.18
67803;BME280;54601;51.378;-1.342;2023-06-24T04:40:40;101086.13;;;24.06;35.86
67803;BME280;54601;51.378;-1.342;2023-06-24T04:43:05;101082.37;;;23.60;36.11
67803;BME280;54601;51.378;-1.342;2023-06-24T04:45:30;101082.74;;;23.81;35.83
67803;BME280;54601;51.378;-1.342;2023-06-24T04:47:56;101085.95;;;23.91;36.04
67803;BME280;54601;51.378;-1.342;2023-06-24T04:50:21;101086.97;;;23.86;36.09
67803;BME280;54601;51.378;-1.342;2023-06-24T04:52:52;101087.19;;;23.95;36.01
67803;BME280;54601;51.378;-1.342;2023-06-24T04:55:12;101084.34;;;23.59;36.12
67803;BME280;54601;51.378;-1.342;2023-06-24T04:57:37;101082.52;;;23.81;36.18
67803;BME280;54601;51.378;-1.342;2023-06-24T05:00:03;101083.55;;;24.12;35.79
67803;BME280;54601;51.378;-1.342;2023-06-24T05:02:28;101086.19;;;24.01;35.89
67803;BME280;54601;51.378;-1.342;2023-06-24T05:04:53;101085.95;;;23.67;35.99
67803;BME280;54601;51.378;-1.342;2023-06-24T05:07:18;101084.38;;;24.03;35.86
67803;BME280;54601;51.378;-1.342;2023-06-24T05:09:46;101084.20;;;24.08;35.79
67803;BME280;54601;51.378;-1.342;2023-06-24T05:12:09;101079.93;;;23.94;35.98
67803;BME280;54601;51.378;-1.342;2023-06-24T05:14:35;101078.51;;;23.65;36.02
67803;BME280;54601;51.378;-1.342;2023-06-24T05:17:00;101079.78;;;24.10;35.77
67803;BME280;54601;51.378;-1.342;2023-06-24T05:19:25;101080.72;;;24.08;35.81
67803;BME280;54601;51.378;-1.342;2023-06-24T05:21:50;101083.19;;;23.68;35.96
67803;BME280;54601;51.378;-1.342;2023-06-24T05:24:16;101084.41;;;23.47;35.95
67803;BME280;54601;51.378;-1.342;2023-06-24T05:26:41;101085.93;;;24.05;35.82
67803;BME280;54601;51.378;-1.342;2023-06-24T05:29:06;101083.98;;;23.93;36.04
67803;BME280;54601;51.378;-1.342;2023-06-24T05:31:32;101083.14;;;24.14;35.72
67803;BME280;54601;51.378;-1.342;2023-06-24T05:33:57;101083.49;;;23.75;35.88
67803;BME280;54601;51.378;-1.342;2023-06-24T05:36:22;101086.44;;;23.92;35.69
67803;BME280;54601;51.378;-1.342;2023-06-24T05:38:48;101086.60;;;23.77;35.58
67803;BME280;54601;51.378;-1.342;2023-06-24T05:41:13;101085.45;;;24.39;35.40
67803;BME280;54601;51.378;-1.342;2023-06-24T05:43:38;101087.44;;;24.42;35.36
67803;BME280;54601;51.378;-1.342;2023-06-24T05:46:04;101092.21;;;24.30;35.53
67803;BME280;54601;51.378;-1.342;2023-06-24T05:48:29;101093.44;;;24.30;35.20
67803;BME280;54601;51.378;-1.342;2023-06-24T05:50:54;101093.27;;;24.19;35.32
67803;BME280;54601;51.378;-1.342;2023-06-24T05:53:20;101099.84;;;24.41;35.08
67803;BME280;54601;51.378;-1.342;2023-06-24T05:55:45;101101.60;;;24.14;35.36
67803;BME280;54601;51.378;-1.342;2023-06-24T05:58:10;101103.06;;;24.09;35.43
67803;BME280;54601;51.378;-1.342;2023-06-24T06:00:36;101104.03;;;24.34;35.50
67803;BME280;54601;51.378;-1.342;2023-06-24T06:03:01;101101.80;;;24.34;35.54
67803;BME280;54601;51.378;-1.342;2023-06-24T06:05:26;101102.00;;;24.05;35.53
67803;BME280;54601;51.378;-1.342;2023-06-24T06:07:52;101098.60;;;24.24;35.30
67803;BME280;54601;51.378;-1.342;2023-06-24T06:10:17;101097.41;;;24.37;35.12
67803;BME280;54601;51.378;-1.342;2023-06-24T06:12:42;101093.37;;;24.99;34.68
67803;BME280;54601;51.378;-1.342;2023-06-24T06:15:09;101092.43;;;24.88;34.48
67803;BME280;54601;51.378;-1.342;2023-06-24T06:17:33;101088.23;;;25.26;34.32
67803;BME280;54601;51.378;-1.342;2023-06-24T06:19:58;101088.58;;;25.15;34.11
67803;BME280;54601;51.378;-1.342;2023-06-24T06:22:24;101091.88;;;25.42;34.10
67803;BME280;54601;51.378;-1.342;2023-06-24T06:24:49;101088.54;;;25.47;33.70
67803;BME280;54601;51.378;-1.342;2023-06-24T06:27:14;101095.24;;;24.89;34.14
67803;BME280;54601;51.378;-1.342;2023-06-24T06:29:40;101092.41;;;25.49;34.04
67803;BME280;54601;51.378;-1.342;2023-06-24T06:32:06;101092.84;;;25.50;33.66
67803;BME280;54601;51.378;-1.342;2023-06-24T06:34:30;101093.22;;;25.49;33.70
67803;BME280;54601;51.378;-1.342;2023-06-24T06:36:55;101095.21;;;25.77;33.34
67803;BME280;54601;51.378;-1.342;2023-06-24T06:39:21;101092.44;;;25.67;33.46
67803;BME280;54601;51.378;-1.342;2023-06-24T06:41:46;101091.08;;;25.41;33.54
67803;BME280;54601;51.378;-1.342;2023-06-24T06:44:11;101088.63;;;25.97;33.50
67803;BME280;54601;51.378;-1.342;2023-06-24T06:46:37;101089.34;;;25.44;33.55
67803;BME280;54601;51.378;-1.342;2023-06-24T06:49:02;101091.33;;;25.53;33.69
67803;BME280;54601;51.378;-1.342;2023-06-24T06:51:27;101090.66;;;25.82;33.73
67803;BME280;54601;51.378;-1.342;2023-06-24T06:53:53;101078.94;;;25.29;33.75
67803;BME280;54601;51.378;-1.342;2023-06-24T06:56:18;101081.31;;;25.61;33.65
67803;BME280;54601;51.378;-1.342;2023-06-24T06:58:43;101087.84;;;25.93;33.57
67803;BME280;54601;51.378;-1.342;2023-06-24T07:01:08;101089.85;;;25.58;33.41
67803;BME280;54601;51.378;-1.342;2023-06-24T07:03:34;101090.60;;;25.64;33.32
67803;BME280;54601;51.378;-1.342;2023-06-24T07:05:59;101094.10;;;25.82;33.25
67803;BME280;54601;51.378;-1.342;2023-06-24T07:08:25;101096.75;;;26.53;32.68
67803;BME280;54601;51.378;-1.342;2023-06-24T07:10:50;101100.35;;;26.94;32.26
67803;BME280;54601;51.378;-1.342;2023-06-24T07:13:15;101105.11;;;27.00;32.41
67803;BME280;54601;51.378;-1.342;2023-06-24T07:15:41;101104.77;;;27.08;32.42
67803;BME280;54601;51.378;-1.342;2023-06-24T07:18:06;101104.98;;;27.39;32.44
67803;BME280;54601;51.378;-1.342;2023-06-24T07:20:31;101106.53;;;27.17;32.53
67803;BME280;54601;51.378;-1.342;2023-06-24T07:22:56;101113.65;;;27.21;32.57
67803;BME280;54601;51.378;-1.342;2023-06-24T07:25:21;101119.53;;;27.31;32.53
67803;BME280;54601;51.378;-1.342;2023-06-24T07:27:47;101120.37;;;27.23;32.59
67803;BME280;54601;51.378;-1.342;2023-06-24T07:30:12;101126.53;;;27.34;32.58
67803;BME280;54601;51.378;-1.342;2023-06-24T07:32:37;101125.90;;;27.39;32.60
67803;BME280;54601;51.378;-1.342;2023-06-24T07:35:03;101122.79;;;27.52;32.48
67803;BME280;54601;51.378;-1.342;2023-06-24T07:37:28;101121.42;;;27.49;32.58
67803;BME280;54601;51.378;-1.342;2023-06-24T07:39:53;101121.91;;;27.58;32.53
67803;BME280;54601;51.378;-1.342;2023-06-24T07:42:18;101124.06;;;27.59;32.57
67803;BME280;54601;51.378;-1.342;2023-06-24T07:44:44;101127.10;;;27.64;32.56
67803;BME280;54601;51.378;-1.342;2023-06-24T07:47:09;101126.47;;;27.75;32.48
67803;BME280;54601;51.378;-1.342;2023-06-24T07:49:34;101131.70;;;27.58;32.41
67803;BME280;54601;51.378;-1.342;2023-06-24T07:52:00;101130.56;;;27.77;32.47
67803;BME280;54601;51.378;-1.342;2023-06-24T07:54:25;101128.88;;;27.51;32.31
67803;BME280;54601;51.378;-1.342;2023-06-24T07:56:50;101124.02;;;28.02;32.31
67803;BME280;54601;51.378;-1.342;2023-06-24T07:59:15;101125.77;;;27.77;32.34
67803;BME280;54601;51.378;-1.342;2023-06-24T08:01:41;101127.94;;;28.12;32.23
67803;BME280;54601;51.378;-1.342;2023-06-24T08:04:06;101125.01;;;27.69;32.25
67803;BME280;54601;51.378;-1.342;2023-06-24T08:06:31;101121.64;;;27.71;32.24
67803;BME280;54601;51.378;-1.342;2023-06-24T08:08:57;101118.03;;;28.05;32.11
67803;BME280;54601;51.378;-1.342;2023-06-24T08:11:22;101118.72;;;27.88;32.11
67803;BME280;54601;51.378;-1.342;2023-06-24T08:13:47;101117.28;;;28.40;32.13
67803;BME280;54601;51.378;-1.342;2023-06-24T08:16:15;101113.08;;;28.00;32.04
67803;BME280;54601;51.378;-1.342;2023-06-24T08:18:38;101113.15;;;28.05;32.05
67803;BME280;54601;51.378;-1.342;2023-06-24T08:21:03;101111.58;;;28.36;31.99
67803;BME280;54601;51.378;-1.342;2023-06-24T08:23:28;101108.25;;;28.18;31.92
67803;BME280;54601;51.378;-1.342;2023-06-24T08:25:54;101108.07;;;28.25;31.92
67803;BME280;54601;51.378;-1.342;2023-06-24T08:28:19;101103.02;;;28.31;31.90
67803;BME280;54601;51.378;-1.342;2023-06-24T08:30:45;101099.34;;;28.27;31.94
67803;BME280;54601;51.378;-1.342;2023-06-24T08:33:10;101102.68;;;28.17;32.26
67803;BME280;54601;51.378;-1.342;2023-06-24T08:35:35;101103.34;;;28.29;32.08
67803;BME280;54601;51.378;-1.342;2023-06-24T08:38:01;101103.43;;;28.51;31.83
67803;BME280;54601;51.378;-1.342;2023-06-24T08:40:27;101101.54;;;28.26;31.82
67803;BME280;54601;51.378;-1.342;2023-06-24T08:42:51;101103.97;;;28.45;31.89
67803;BME280;54601;51.378;-1.342;2023-06-24T08:45:17;101102.71;;;28.51;31.86
67803;BME280;54601;51.378;-1.342;2023-06-24T08:47:42;101096.21;;;28.15;32.01
67803;BME280;54601;51.378;-1.342;2023-06-24T08:50:11;101095.12;;;28.56;32.07
67803;BME280;54601;51.378;-1.342;2023-06-24T08:52:35;101095.52;;;28.35;32.06
67803;BME280;54601;51.378;-1.342;2023-06-24T08:54:59;101094.27;;;28.31;32.09
67803;BME280;54601;51.378;-1.342;2023-06-24T08:57:23;101093.82;;;28.31;32.09
67803;BME280;54601;51.378;-1.342;2023-06-24T08:59:48;101095.40;;;28.28;32.11
67803;BME280;54601;51.378;-1.342;2023-06-24T09:02:13;101098.66;;;28.31;32.17
67803;BME280;54601;51.378;-1.342;2023-06-24T09:04:40;101099.94;;;28.28;32.18
67803;BME280;54601;51.378;-1.342;2023-06-24T09:07:04;101094.17;;;28.19;32.24
67803;BME280;54601;51.378;-1.342;2023-06-24T09:09:29;101097.70;;;28.14;32.26
67803;BME280;54601;51.378;-1.342;2023-06-24T09:11:57;101097.50;;;28.19;32.22
67803;BME280;54601;51.378;-1.342;2023-06-24T09:14:20;101099.69;;;28.21;32.23
67803;BME280;54601;51.378;-1.342;2023-06-24T09:16:51;101102.27;;;27.92;32.28
67803;BME280;54601;51.378;-1.342;2023-06-24T09:19:10;101101.13;;;28.16;32.27
67803;BME280;54601;51.378;-1.342;2023-06-24T09:21:36;101100.48;;;28.22;32.16
67803;BME280;54601;51.378;-1.342;2023-06-24T09:24:01;101095.52;;;28.29;32.09
67803;BME280;54601;51.378;-1.342;2023-06-24T09:26:27;101093.46;;;28.07;32.09
67803;BME280;54601;51.378;-1.342;2023-06-24T09:28:52;101096.65;;;28.27;32.10
67803;BME280;54601;51.378;-1.342;2023-06-24T09:31:17;101090.36;;;28.21;32.17
67803;BME280;54601;51.378;-1.342;2023-06-24T09:33:42;101091.75;;;28.16;32.23
67803;BME280;54601;51.378;-1.342;2023-06-24T09:36:11;101088.75;;;28.20;32.20
67803;BME280;54601;51.378;-1.342;2023-06-24T09:38:34;101087.69;;;27.64;32.29
67803;BME280;54601;51.378;-1.342;2023-06-24T09:41:02;101087.28;;;28.15;32.26
67803;BME280;54601;51.378;-1.342;2023-06-24T09:43:23;101086.52;;;28.16;32.23
67803;BME280;54601;51.378;-1.342;2023-06-24T09:45:49;101089.44;;;28.22;32.13
67803;BME280;54601;51.378;-1.342;2023-06-24T09:48:14;101090.32;;;28.20;32.15
67803;BME280;54601;51.378;-1.342;2023-06-24T09:50:39;101087.12;;;28.21;32.15
67803;BME280;54601;51.378;-1.342;2023-06-24T09:53:04;101080.10;;;27.95;32.19
67803;BME280;54601;51.378;-1.342;2023-06-24T09:55:30;101081.88;;;28.17;32.20
67803;BME280;54601;51.378;-1.342;2023-06-24T09:57:55;101078.55;;;27.99;32.16
67803;BME280;54601;51.378;-1.342;2023-06-24T10:00:20;101070.54;;;28.16;32.23
67803;BME280;54601;51.378;-1.342;2023-06-24T10:02:47;101070.18;;;28.19;32.23
67803;BME280;54601;51.378;-1.342;2023-06-24T10:05:11;101068.49;;;28.13;32.29
67803;BME280;54601;51.378;-1.342;2023-06-24T10:07:36;101069.83;;;28.13;32.35
67803;BME280;54601;51.378;-1.342;2023-06-24T10:10:02;101064.58;;;28.18;32.29
67803;BME280;54601;51.378;-1.342;2023-06-24T10:12:26;101061.32;;;28.25;32.22
67803;BME280;54601;51.378;-1.342;2023-06-24T10:14:52;101055.46;;;27.98;32.29
67803;BME280;54601;51.378;-1.342;2023-06-24T10:17:17;101053.13;;;28.13;32.11
67803;BME280;54601;51.378;-1.342;2023-06-24T10:19:44;101054.64;;;28.29;32.15
67803;BME280;54601;51.378;-1.342;2023-06-24T10:22:08;101048.00;;;28.11;32.09
67803;BME280;54601;51.378;-1.342;2023-06-24T10:24:34;101044.81;;;28.05;32.26
67803;BME280;54601;51.378;-1.342;2023-06-24T10:27:02;101045.97;;;28.32;32.16
67803;BME280;54601;51.378;-1.342;2023-06-24T10:29:32;101041.54;;;28.30;32.20
67803;BME280;54601;51.378;-1.342;2023-06-24T10:31:53;101039.55;;;28.13;32.15
67803;BME280;54601;51.378;-1.342;2023-06-24T10:34:24;101045.84;;;28.10;32.27
67803;BME280;54601;51.378;-1.342;2023-06-24T10:36:39;101043.15;;;28.42;32.16
67803;BME280;54601;51.378;-1.342;2023-06-24T10:39:05;101039.49;;;28.19;32.13
67803;BME280;54601;51.378;-1.342;2023-06-24T10:41:32;101030.62;;;28.32;32.23
67803;BME280;54601;51.378;-1.342;2023-06-24T10:43:56;101026.31;;;28.38;32.13
67803;BME280;54601;51.378;-1.342;2023-06-24T10:46:20;101029.50;;;28.30;32.21
67803;BME280;54601;51.378;-1.342;2023-06-24T10:48:46;101027.78;;;28.51;32.13
67803;BME280;54601;51.378;-1.342;2023-06-24T10:51:11;101021.08;;;28.41;32.26
67803;BME280;54601;51.378;-1.342;2023-06-24T10:53:37;101020.27;;;28.48;32.27
67803;BME280;54601;51.378;-1.342;2023-06-24T10:56:02;101021.41;;;28.73;32.38
67803;BME280;54601;51.378;-1.342;2023-06-24T10:58:27;101018.44;;;28.78;32.43
67803;BME280;54601;51.378;-1.342;2023-06-24T11:00:52;101012.70;;;28.39;32.75
67803;BME280;54601;51.378;-1.342;2023-06-24T11:03:17;101014.68;;;28.59;32.71
67803;BME280;54601;51.378;-1.342;2023-06-24T11:05:45;101017.36;;;28.71;32.64
67803;BME280;54601;51.378;-1.342;2023-06-24T11:08:09;101013.16;;;28.55;32.61
67803;BME280;54601;51.378;-1.342;2023-06-24T11:10:33;101014.36;;;28.60;32.62
67803;BME280;54601;51.378;-1.342;2023-06-24T11:13:05;101008.30;;;28.84;32.60
67803;BME280;54601;51.378;-1.342;2023-06-24T11:15:24;101010.90;;;28.54;32.94
67803;BME280;54601;51.378;-1.342;2023-06-24T11:17:51;101008.38;;;28.76;32.70
67803;BME280;54601;51.378;-1.342;2023-06-24T11:20:15;101007.14;;;28.75;32.74
67803;BME280;54601;51.378;-1.342;2023-06-24T11:22:40;101004.69;;;28.63;32.90
67803;BME280;54601;51.378;-1.342;2023-06-24T11:25:05;101001.85;;;28.66;32.90
67803;BME280;54601;51.378;-1.342;2023-06-24T11:27:31;101000.34;;;28.73;32.80
67803;BME280;54601;51.378;-1.342;2023-06-24T11:29:57;100993.15;;;28.66;32.93
67803;BME280;54601;51.378;-1.342;2023-06-24T11:32:21;100992.74;;;28.45;32.89
67803;BME280;54601;51.378;-1.342;2023-06-24T11:34:46;100993.27;;;28.51;32.80
67803;BME280;54601;51.378;-1.342;2023-06-24T11:37:12;100992.48;;;28.50;32.85
67803;BME280;54601;51.378;-1.342;2023-06-24T11:39:37;100993.74;;;28.82;32.79
67803;BME280;54601;51.378;-1.342;2023-06-24T11:42:06;100984.07;;;28.60;33.05
67803;BME280;54601;51.378;-1.342;2023-06-24T11:44:28;100986.27;;;28.71;32.99
67803;BME280;54601;51.378;-1.342;2023-06-24T11:47:03;100978.79;;;28.94;32.74
67803;BME280;54601;51.378;-1.342;2023-06-24T11:49:19;100973.89;;;28.97;32.76
67803;BME280;54601;51.378;-1.342;2023-06-24T11:51:48;100975.61;;;28.54;32.91
67803;BME280;54601;51.378;-1.342;2023-06-24T11:54:09;100977.93;;;28.61;32.89
67803;BME280;54601;51.378;-1.342;2023-06-24T11:56:34;100977.57;;;28.83;32.86
67803;BME280;54601;51.378;-1.342;2023-06-24T11:58:59;100975.86;;;28.45;33.07
67803;BME280;54601;51.378;-1.342;2023-06-24T12:01:30;100971.55;;;28.81;32.91
67803;BME280;54601;51.378;-1.342;2023-06-24T12:03:51;100971.73;;;28.88;32.83
67803;BME280;54601;51.378;-1.342;2023-06-24T12:06:16;100968.44;;;28.95;32.76
67803;BME280;54601;51.378;-1.342;2023-06-24T12:08:41;100967.24;;;28.93;32.78
67803;BME280;54601;51.378;-1.342;2023-06-24T12:11:06;100969.68;;;29.01;32.69
67803;BME280;54601;51.378;-1.342;2023-06-24T12:13:31;100966.29;;;28.65;32.83
67803;BME280;54601;51.378;-1.342;2023-06-24T12:15:57;100959.93;;;29.08;32.77
67803;BME280;54601;51.378;-1.342;2023-06-24T12:18:22;100959.86;;;28.84;32.85
67803;BME280;54601;51.378;-1.342;2023-06-24T12:20:47;100959.14;;;29.06;32.93
67803;BME280;54601;51.378;-1.342;2023-06-24T12:23:13;100961.24;;;28.93;33.21
67803;BME280;54601;51.378;-1.342;2023-06-24T12:25:38;100958.18;;;29.16;33.11
67803;BME280;54601;51.378;-1.342;2023-06-24T12:28:03;100948.95;;;28.98;32.99
67803;BME280;54601;51.378;-1.342;2023-06-24T12:30:29;100952.24;;;29.17;33.08